Alix, Arkansas
Current Conditions -  °F | °C
As of 1:53 PM on Thursday 23 Oct 2014 (Local Time) from KFSM Reporting Station
Broken Clouds Broken Clouds  
Wind Chill: 67°   Ceiling: 12000
Heat Index: 67°   Visibility: 10mi
Dew Point: 49°   Wind: 6mph
Humidity: 52%   Direction: 50°NE
Pressure: 30.15"   Gusts: NA
Location:  35.43°N, 93.73°W
Report Text: KFSM 231853Z 05005KT 10SM BKN120 19/09 A3015 RMK AO2 SLP207 T01940094
Loading
Personal Weather Stations






























Interactive Weather Map New forecast layout! Learn more

10-Day Weather Forecast

Advertisements
Track Severe Weather on mobile